createdAt,value
2019-03-29T00:02:04.312Z,6.27
2019-03-29T00:04:32.895Z,5.33
2019-03-29T00:06:59.629Z,5.03
2019-03-29T00:09:28.552Z,6.07
2019-03-29T00:11:55.458Z,5.07
2019-03-29T00:14:23.621Z,7.10
2019-03-29T00:16:52.164Z,5.90
2019-03-29T00:19:18.548Z,4.77
2019-03-29T00:21:44.916Z,4.83
2019-03-29T00:24:16.499Z,5.60
2019-03-29T00:26:45.812Z,6.13
2019-03-29T00:29:12.115Z,5.00
2019-03-29T00:31:39.968Z,5.63
2019-03-29T00:34:06.535Z,5.57
2019-03-29T00:36:33.201Z,5.87
2019-03-29T00:38:59.740Z,7.97
2019-03-29T00:41:26.542Z,4.83
2019-03-29T00:43:52.944Z,7.07
2019-03-29T00:46:19.702Z,7.40
2019-03-29T00:48:46.355Z,5.80
2019-03-29T00:51:13.895Z,5.20
2019-03-29T00:53:40.673Z,7.23
2019-03-29T00:56:09.999Z,6.00
2019-03-29T00:58:36.366Z,7.37
2019-03-29T01:01:03.085Z,5.97
2019-03-29T01:03:29.950Z,11.23
2019-03-29T01:05:59.592Z,5.97
2019-03-29T01:08:27.276Z,7.13
2019-03-29T01:10:55.168Z,5.87
2019-03-29T01:13:21.472Z,7.13
2019-03-29T01:15:48.135Z,6.67
2019-03-29T01:18:16.395Z,8.40
2019-03-29T01:20:43.187Z,5.80
2019-03-29T01:23:09.620Z,6.63
2019-03-29T01:25:39.012Z,8.27
2019-03-29T01:28:06.597Z,6.80
2019-03-29T01:30:33.144Z,7.20
2019-03-29T01:32:59.548Z,7.90
2019-03-29T01:35:25.963Z,9.17
2019-03-29T01:37:52.327Z,8.00
2019-03-29T01:40:19.055Z,7.50
2019-03-29T01:42:49.164Z,9.23
2019-03-29T01:45:15.922Z,8.90
2019-03-29T01:47:43.078Z,11.00
2019-03-29T01:50:10.851Z,9.10
2019-03-29T01:52:39.631Z,9.83
2019-03-29T01:55:06.626Z,10.13
2019-03-29T01:57:33.618Z,9.07
2019-03-29T02:00:02.771Z,8.97
2019-03-29T02:02:31.300Z,8.10
2019-03-29T02:04:57.579Z,7.67
2019-03-29T02:07:24.295Z,9.87
2019-03-29T02:09:51.201Z,8.47
2019-03-29T02:15:07.419Z,11.50
2019-03-29T02:17:33.725Z,9.93
2019-03-29T02:20:00.971Z,11.97
2019-03-29T02:22:27.475Z,10.60
2019-03-29T02:24:54.189Z,9.80
2019-03-29T02:27:22.506Z,11.27
2019-03-29T02:29:49.008Z,11.10
2019-03-29T02:32:15.462Z,11.20
2019-03-29T02:34:43.602Z,13.17
2019-03-29T02:37:10.404Z,9.80
2019-03-29T02:39:38.956Z,11.57
2019-03-29T02:42:05.388Z,11.87
2019-03-29T02:44:31.839Z,9.77
2019-03-29T02:46:58.351Z,9.37
2019-03-29T02:49:24.918Z,10.60
2019-03-29T02:51:51.261Z,10.10
2019-03-29T02:54:17.925Z,9.33
2019-03-29T02:56:46.195Z,11.20
2019-03-29T02:59:12.466Z,9.50
2019-03-29T03:01:39.003Z,10.13
2019-03-29T03:04:08.221Z,13.97
2019-03-29T03:06:34.611Z,12.97
2019-03-29T03:09:13.076Z,12.70
2019-03-29T03:11:31.761Z,12.87
2019-03-29T03:13:58.157Z,11.53
2019-03-29T03:16:24.525Z,11.60
2019-03-29T03:18:50.922Z,13.53
2019-03-29T03:21:17.793Z,15.53
2019-03-29T03:23:44.426Z,13.67
2019-03-29T03:26:10.935Z,15.13
2019-03-29T03:28:40.397Z,18.23
2019-03-29T03:31:09.952Z,15.93
2019-03-29T03:33:36.405Z,18.70
2019-03-29T03:36:03.152Z,18.10
2019-03-29T03:38:29.620Z,15.83
2019-03-29T03:40:56.093Z,15.53
2019-03-29T03:43:22.527Z,17.57
2019-03-29T03:45:51.021Z,15.73
2019-03-29T03:48:17.770Z,14.87
2019-03-29T03:50:44.140Z,16.60
2019-03-29T03:53:10.609Z,15.50
2019-03-29T03:55:41.333Z,15.47
2019-03-29T03:58:09.077Z,14.00
2019-03-29T04:00:43.369Z,14.97
2019-03-29T04:03:11.697Z,14.67
2019-03-29T04:05:38.092Z,12.20
2019-03-29T04:08:05.050Z,15.83
2019-03-29T04:10:31.716Z,16.87
2019-03-29T04:12:58.181Z,16.93
2019-03-29T04:15:26.735Z,14.47
2019-03-29T04:17:56.372Z,17.43
2019-03-29T04:20:23.095Z,13.07
2019-03-29T04:22:49.471Z,16.13
2019-03-29T04:25:16.038Z,17.30
2019-03-29T04:27:42.380Z,13.60
2019-03-29T04:30:09.023Z,14.10
2019-03-29T04:32:37.035Z,18.33
2019-03-29T04:35:03.946Z,16.97
2019-03-29T04:37:30.347Z,17.30
2019-03-29T04:40:06.995Z,22.33
2019-03-29T04:42:26.124Z,19.90
2019-03-29T04:44:53.617Z,21.90
2019-03-29T04:47:21.155Z,19.93
2019-03-29T04:49:47.851Z,20.70
2019-03-29T04:52:14.473Z,19.77
2019-03-29T04:54:40.993Z,20.73
2019-03-29T04:57:07.451Z,21.93
2019-03-29T04:59:36.155Z,28.77
2019-03-29T05:02:02.523Z,27.93
2019-03-29T05:04:30.804Z,27.40
2019-03-29T05:06:57.148Z,24.07
2019-03-29T05:09:23.634Z,24.63
2019-03-29T05:11:50.153Z,22.93
2019-03-29T05:14:23.586Z,27.60
2019-03-29T05:16:53.136Z,28.10
2019-03-29T05:19:19.819Z,26.10
2019-03-29T05:21:46.153Z,24.00
2019-03-29T05:24:12.807Z,20.90
2019-03-29T05:26:39.135Z,22.43
2019-03-29T05:29:06.619Z,22.67
2019-03-29T05:31:34.986Z,22.27
2019-03-29T05:34:03.299Z,23.90
2019-03-29T05:36:30.066Z,35.80
2019-03-29T05:38:56.372Z,29.90
2019-03-29T05:41:24.366Z,27.53
2019-03-29T05:43:50.855Z,25.60
2019-03-29T05:46:17.619Z,29.30
2019-03-29T05:48:46.765Z,29.33
2019-03-29T05:51:15.413Z,35.43
2019-03-29T05:53:43.946Z,29.30
2019-03-29T05:56:11.847Z,26.63
2019-03-29T05:58:38.215Z,26.90
2019-03-29T06:01:04.647Z,28.73
2019-03-29T06:03:31.427Z,31.07
2019-03-29T06:05:57.780Z,29.23
2019-03-29T06:08:24.175Z,27.70
2019-03-29T06:10:50.578Z,31.90
2019-03-29T06:13:16.982Z,29.97
2019-03-29T06:15:45.407Z,32.47
2019-03-29T06:18:11.782Z,31.97
2019-03-29T06:20:38.353Z,28.23
2019-03-29T06:23:04.715Z,32.50
2019-03-29T06:25:31.141Z,31.53
2019-03-29T06:28:00.124Z,32.17
2019-03-29T06:30:27.792Z,30.73
2019-03-29T06:32:54.280Z,29.93
2019-03-29T06:35:20.895Z,29.43
2019-03-29T06:37:47.411Z,28.33
2019-03-29T06:40:17.618Z,27.17
2019-03-29T06:42:44.256Z,27.60
2019-03-29T06:45:11.088Z,25.33
2019-03-29T06:47:37.469Z,23.27
2019-03-29T06:50:07.434Z,26.80
2019-03-29T06:52:33.889Z,24.70
2019-03-29T06:55:00.474Z,25.17
2019-03-29T06:57:27.174Z,28.57
2019-03-29T06:59:53.746Z,23.10
2019-03-29T07:02:22.983Z,25.60
2019-03-29T07:04:49.419Z,28.57
2019-03-29T07:07:15.848Z,24.57
2019-03-29T07:09:42.216Z,21.57
2019-03-29T07:12:08.951Z,16.80
2019-03-29T07:14:35.466Z,17.53
2019-03-29T07:17:01.816Z,20.97
2019-03-29T07:19:28.195Z,14.80
2019-03-29T07:21:54.511Z,19.70
2019-03-29T07:24:21.895Z,16.90
2019-03-29T07:26:50.258Z,15.73
2019-03-29T07:29:19.862Z,17.37
2019-03-29T07:31:48.349Z,14.77
2019-03-29T07:34:14.966Z,16.57
2019-03-29T07:36:43.285Z,15.27
2019-03-29T07:39:11.016Z,12.90
2019-03-29T07:41:37.920Z,15.43
2019-03-29T07:44:04.615Z,14.10
2019-03-29T07:46:30.965Z,12.53
2019-03-29T07:49:00.425Z,14.03
2019-03-29T07:51:26.791Z,13.53
2019-03-29T07:53:56.376Z,14.43
2019-03-29T07:56:22.748Z,11.80
2019-03-29T07:58:49.181Z,12.57
2019-03-29T08:01:17.442Z,11.67
2019-03-29T08:03:43.855Z,11.03
2019-03-29T08:06:11.300Z,11.07
2019-03-29T08:08:40.407Z,12.57
2019-03-29T08:11:06.820Z,12.10
2019-03-29T08:13:33.250Z,13.77
2019-03-29T08:16:00.387Z,12.67
2019-03-29T08:18:28.040Z,12.63
2019-03-29T08:20:57.229Z,12.17
2019-03-29T08:23:23.958Z,12.60
2019-03-29T08:25:50.310Z,16.33
2019-03-29T08:28:19.374Z,13.43
2019-03-29T08:30:46.349Z,12.87
2019-03-29T08:33:13.727Z,14.60
2019-03-29T08:35:40.141Z,12.80
2019-03-29T08:38:08.644Z,13.80
2019-03-29T08:40:40.202Z,12.10
2019-03-29T08:43:08.469Z,12.83
2019-03-29T08:45:34.828Z,13.00
2019-03-29T08:48:02.389Z,11.83
2019-03-29T08:50:28.791Z,13.57
2019-03-29T08:52:58.094Z,13.53
2019-03-29T08:55:24.576Z,12.07
2019-03-29T08:57:52.870Z,16.53
2019-03-29T09:00:29.501Z,11.87
2019-03-29T09:02:59.159Z,12.23
2019-03-29T09:05:26.933Z,10.43
2019-03-29T09:07:53.596Z,10.67
2019-03-29T09:10:25.790Z,10.70
2019-03-29T09:12:52.446Z,11.63
2019-03-29T09:15:18.972Z,12.90
2019-03-29T09:17:45.458Z,11.47
2019-03-29T09:20:12.147Z,11.10
2019-03-29T09:22:38.800Z,11.73
2019-03-29T09:25:05.770Z,11.40
2019-03-29T09:27:34.981Z,10.50
2019-03-29T09:30:04.970Z,10.07
2019-03-29T09:32:30.037Z,10.83
2019-03-29T09:34:56.477Z,10.77
2019-03-29T09:37:26.490Z,10.53
2019-03-29T09:39:52.908Z,11.27
2019-03-29T09:42:28.884Z,10.40
2019-03-29T09:44:49.891Z,11.57
2019-03-29T09:47:18.237Z,10.23
2019-03-29T09:49:44.952Z,10.40
2019-03-29T09:52:15.362Z,10.77
2019-03-29T09:54:42.095Z,9.77
2019-03-29T09:57:10.156Z,9.53
2019-03-29T09:59:36.887Z,9.67
2019-03-29T10:02:03.290Z,11.13
2019-03-29T10:04:29.635Z,10.57
2019-03-29T10:06:56.215Z,9.73
2019-03-29T10:09:22.575Z,11.30
2019-03-29T10:11:49.329Z,10.10
2019-03-29T10:14:20.239Z,8.33
2019-03-29T10:16:44.285Z,11.13
2019-03-29T10:19:10.647Z,9.00
2019-03-29T10:21:39.245Z,8.07
2019-03-29T10:24:05.969Z,10.03
2019-03-29T10:26:35.482Z,7.53
2019-03-29T10:29:01.860Z,8.77
2019-03-29T10:31:32.489Z,9.30
2019-03-29T10:33:56.665Z,8.73
2019-03-29T10:36:23.179Z,7.23
2019-03-29T10:38:49.607Z,7.60
2019-03-29T10:41:22.617Z,5.90
2019-03-29T10:43:46.559Z,6.27
2019-03-29T10:46:12.957Z,4.17
2019-03-29T10:48:39.731Z,6.13
2019-03-29T10:51:08.365Z,6.60
2019-03-29T10:53:35.268Z,5.37
2019-03-29T10:56:06.296Z,6.73
2019-03-29T10:58:32.835Z,7.13
2019-03-29T11:01:01.209Z,6.13
2019-03-29T11:03:29.055Z,7.90
2019-03-29T11:05:55.759Z,6.87
2019-03-29T11:08:24.054Z,5.43
2019-03-29T11:10:50.731Z,6.20
2019-03-29T11:13:17.284Z,6.37
2019-03-29T11:15:43.651Z,6.40
2019-03-29T11:18:12.984Z,7.17
2019-03-29T11:20:41.397Z,6.63
2019-03-29T11:23:10.113Z,6.10
2019-03-29T11:25:36.735Z,6.63
2019-03-29T11:28:04.329Z,6.97
2019-03-29T11:30:42.232Z,6.37
2019-03-29T11:33:03.054Z,7.47
2019-03-29T11:35:30.363Z,6.47
2019-03-29T11:37:58.637Z,6.83
2019-03-29T11:40:25.085Z,7.00
2019-03-29T11:42:51.527Z,6.80
2019-03-29T11:45:17.934Z,7.03
2019-03-29T11:47:44.715Z,7.03
2019-03-29T11:50:12.029Z,7.37
2019-03-29T11:52:38.411Z,7.33
2019-03-29T11:55:07.134Z,6.97
2019-03-29T11:57:33.955Z,6.43
2019-03-29T12:00:00.372Z,8.43
2019-03-29T12:02:31.453Z,7.43
2019-03-29T12:04:55.361Z,6.67
2019-03-29T12:07:21.731Z,6.93
2019-03-29T12:09:48.221Z,7.70
2019-03-29T12:12:16.719Z,7.50
2019-03-29T12:14:43.899Z,8.87
2019-03-29T12:17:15.922Z,7.80
2019-03-29T12:19:44.237Z,6.80
2019-03-29T12:22:11.127Z,7.33
2019-03-29T12:24:37.681Z,9.73
2019-03-29T12:27:04.515Z,8.87
2019-03-29T12:29:31.082Z,7.53
2019-03-29T12:31:57.511Z,7.37
2019-03-29T12:34:24.893Z,10.00
2019-03-29T12:36:52.003Z,6.87
2019-03-29T12:39:18.522Z,7.80
2019-03-29T12:41:44.926Z,7.73
2019-03-29T12:44:11.348Z,8.23
2019-03-29T12:46:37.803Z,8.13
2019-03-29T12:49:06.564Z,7.83
2019-03-29T12:51:33.287Z,10.60
2019-03-29T12:54:01.721Z,7.50
2019-03-29T12:56:31.186Z,7.43
2019-03-29T12:58:57.846Z,10.07
2019-03-29T13:01:38.425Z,7.80
2019-03-29T13:03:53.007Z,8.97
2019-03-29T13:06:19.301Z,8.07
2019-03-29T13:08:45.580Z,8.53
2019-03-29T13:11:11.951Z,8.90
2019-03-29T13:13:40.403Z,7.50
2019-03-29T13:16:06.803Z,9.77
2019-03-29T13:18:33.120Z,8.03
2019-03-29T13:20:59.925Z,8.33
2019-03-29T13:23:28.711Z,8.17
2019-03-29T13:25:55.046Z,8.90
2019-03-29T13:28:24.514Z,8.63
2019-03-29T13:30:51.053Z,8.20
2019-03-29T13:33:20.433Z,10.60
2019-03-29T13:35:45.966Z,8.00
2019-03-29T13:38:12.275Z,8.17
2019-03-29T13:40:38.776Z,8.27
2019-03-29T13:43:05.597Z,8.47
2019-03-29T13:45:32.239Z,9.00
2019-03-29T13:48:00.474Z,8.80
2019-03-29T13:50:27.196Z,9.37
2019-03-29T13:52:53.828Z,8.30
2019-03-29T13:55:20.414Z,11.00
2019-03-29T13:57:48.680Z,10.93
2019-03-29T14:00:16.490Z,9.77
2019-03-29T14:02:43.012Z,8.63
2019-03-29T14:05:09.578Z,8.90
2019-03-29T14:07:36.685Z,9.47
2019-03-29T14:10:08.954Z,8.00
2019-03-29T14:12:38.307Z,8.10
2019-03-29T14:15:10.322Z,9.20
2019-03-29T14:17:37.173Z,10.33
2019-03-29T14:20:05.922Z,8.43
2019-03-29T14:22:34.686Z,10.40
2019-03-29T14:25:04.292Z,9.07
2019-03-29T14:27:30.946Z,10.57
2019-03-29T14:30:04.255Z,9.63
2019-03-29T14:32:25.463Z,11.13
2019-03-29T14:34:51.719Z,9.57
2019-03-29T14:37:18.296Z,9.57
2019-03-29T14:39:44.677Z,10.57
2019-03-29T14:42:12.739Z,8.83
2019-03-29T14:44:51.820Z,12.60
2019-03-29T14:47:09.461Z,9.13
2019-03-29T14:49:35.988Z,8.90
2019-03-29T14:52:03.339Z,10.13
2019-03-29T14:54:29.783Z,7.73
2019-03-29T14:56:56.286Z,9.03
2019-03-29T14:59:23.073Z,9.40
2019-03-29T15:01:49.835Z,9.40
2019-03-29T15:04:17.932Z,9.53
2019-03-29T15:06:48.162Z,9.40
2019-03-29T15:09:14.636Z,9.00
2019-03-29T15:11:41.388Z,8.17
2019-03-29T15:14:23.083Z,11.07
2019-03-29T15:16:48.502Z,8.80
2019-03-29T15:19:14.909Z,11.23
2019-03-29T15:21:41.246Z,9.20
2019-03-29T15:24:07.709Z,7.83
2019-03-29T15:26:38.919Z,8.50
2019-03-29T15:29:11.704Z,9.50
2019-03-29T15:31:50.379Z,11.43
2019-03-29T15:34:21.388Z,10.13
2019-03-29T15:36:48.835Z,8.40
2019-03-29T15:39:19.175Z,8.73
2019-03-29T15:41:52.863Z,10.47
2019-03-29T15:44:24.205Z,11.10
2019-03-29T15:46:53.199Z,10.87
2019-03-29T15:49:19.606Z,11.73
2019-03-29T15:51:46.056Z,10.63
2019-03-29T15:54:13.582Z,11.97
2019-03-29T15:56:42.894Z,10.87
2019-03-29T15:59:09.569Z,10.97
2019-03-29T16:01:43.028Z,9.43
2019-03-29T16:04:09.843Z,10.83
2019-03-29T16:06:37.489Z,13.67
2019-03-29T16:09:11.562Z,11.77
2019-03-29T16:11:39.293Z,10.80
2019-03-29T16:14:07.751Z,10.97
2019-03-29T16:16:34.352Z,10.10
2019-03-29T16:19:00.786Z,11.33
2019-03-29T16:21:27.639Z,9.50
2019-03-29T16:23:54.383Z,14.27
2019-03-29T16:26:20.679Z,10.57
2019-03-29T16:28:48.199Z,15.70
2019-03-29T16:31:15.731Z,9.77
2019-03-29T16:33:42.696Z,10.43
2019-03-29T16:36:09.363Z,10.50
2019-03-29T16:38:37.727Z,11.10
2019-03-29T16:41:04.242Z,14.40
2019-03-29T16:43:32.753Z,14.03
2019-03-29T16:45:59.198Z,10.90
2019-03-29T16:48:28.714Z,11.70
2019-03-29T16:50:55.619Z,12.27
2019-03-29T16:53:27.850Z,11.20
2019-03-29T16:55:54.215Z,10.00
2019-03-29T16:58:21.135Z,12.60
2019-03-29T17:00:48.115Z,11.83
2019-03-29T17:03:16.983Z,11.20
2019-03-29T17:06:14.530Z,12.50
2019-03-29T17:08:43.166Z,12.23
2019-03-29T17:11:14.314Z,11.33
2019-03-29T17:13:40.159Z,12.27
2019-03-29T17:16:08.125Z,13.63
2019-03-29T17:18:34.972Z,13.67
2019-03-29T17:21:02.693Z,12.80
2019-03-29T17:23:29.656Z,12.73
2019-03-29T17:25:58.899Z,15.57
2019-03-29T17:28:27.164Z,13.60
2019-03-29T17:30:59.097Z,16.63
2019-03-29T17:33:25.881Z,19.13
2019-03-29T17:35:52.508Z,16.73
2019-03-29T17:38:21.282Z,12.73
2019-03-29T17:40:49.765Z,13.13
2019-03-29T17:43:16.832Z,12.80
2019-03-29T17:45:45.343Z,12.00
2019-03-29T17:48:12.149Z,11.33
2019-03-29T17:50:38.625Z,13.87
2019-03-29T17:53:06.959Z,14.23
2019-03-29T17:55:33.633Z,15.13
2019-03-29T17:58:02.856Z,14.23
2019-03-29T18:00:30.355Z,14.00
2019-03-29T18:02:58.161Z,15.53
2019-03-29T18:05:26.482Z,12.97
2019-03-29T18:07:53.264Z,25.30
2019-03-29T18:10:20.014Z,16.57
2019-03-29T18:12:46.496Z,14.43
2019-03-29T18:15:17.531Z,14.13
2019-03-29T18:17:44.006Z,10.90
2019-03-29T18:20:10.974Z,10.67
2019-03-29T18:22:37.399Z,11.70
2019-03-29T18:25:05.307Z,12.53
2019-03-29T18:27:31.688Z,17.93
2019-03-29T18:29:58.141Z,12.17
2019-03-29T18:32:24.454Z,12.87
2019-03-29T18:34:53.398Z,12.60
2019-03-29T18:37:21.298Z,11.77
2019-03-29T18:39:54.970Z,14.47
2019-03-29T18:42:20.918Z,14.50
2019-03-29T18:44:47.375Z,17.00
2019-03-29T18:47:13.801Z,14.53
2019-03-29T18:49:42.472Z,13.43
2019-03-29T18:52:10.519Z,20.53
2019-03-29T18:54:37.287Z,13.57
2019-03-29T18:57:05.590Z,14.53
2019-03-29T18:59:32.505Z,13.83
2019-03-29T19:01:58.910Z,15.77
2019-03-29T19:04:30.237Z,15.27
2019-03-29T19:06:56.959Z,16.87
2019-03-29T19:09:26.853Z,13.70
2019-03-29T19:11:53.290Z,17.50
2019-03-29T19:14:19.648Z,15.27
2019-03-29T19:16:58.409Z,16.97
2019-03-29T19:19:14.194Z,14.23
2019-03-29T19:21:42.478Z,13.40
2019-03-29T19:24:09.180Z,13.07
2019-03-29T19:26:36.832Z,12.63
2019-03-29T19:29:03.321Z,11.57
2019-03-29T19:31:29.812Z,14.63
2019-03-29T19:33:56.333Z,15.80
2019-03-29T19:36:22.921Z,14.57
2019-03-29T19:38:49.684Z,15.37
2019-03-29T19:41:16.050Z,17.53
2019-03-29T19:43:42.887Z,16.77
2019-03-29T19:46:10.387Z,20.53
2019-03-29T19:48:37.596Z,18.60
2019-03-29T19:51:04.094Z,15.90
2019-03-29T19:53:34.317Z,13.77
2019-03-29T19:56:02.869Z,15.30
2019-03-29T19:58:29.470Z,18.43
2019-03-29T20:00:59.085Z,15.30
2019-03-29T20:03:25.555Z,13.23
2019-03-29T20:05:52.363Z,11.73
2019-03-29T20:08:18.748Z,12.00
2019-03-29T20:10:45.256Z,11.87
2019-03-29T20:13:11.639Z,11.80
2019-03-29T20:15:38.146Z,12.80
2019-03-29T20:18:04.524Z,14.70
2019-03-29T20:20:31.001Z,15.67
2019-03-29T20:22:57.603Z,11.70
2019-03-29T20:25:25.423Z,12.00
2019-03-29T20:27:52.204Z,15.83
2019-03-29T20:30:22.549Z,14.20
2019-03-29T20:32:49.071Z,12.93
2019-03-29T20:35:18.068Z,14.30
2019-03-29T20:37:44.896Z,12.93
2019-03-29T20:40:14.576Z,14.83
2019-03-29T20:42:42.490Z,15.77
2019-03-29T20:45:09.645Z,14.60
2019-03-29T20:47:42.371Z,11.80
2019-03-29T20:50:05.182Z,10.03
2019-03-29T20:52:31.801Z,8.80
2019-03-29T20:54:58.489Z,9.67
2019-03-29T20:57:25.181Z,8.93
2019-03-29T20:59:54.589Z,7.70
2019-03-29T21:02:21.923Z,7.17
2019-03-29T21:04:48.256Z,7.43
2019-03-29T21:07:14.676Z,12.10
2019-03-29T21:09:45.252Z,7.47
2019-03-29T21:12:13.812Z,7.23
2019-03-29T21:14:41.240Z,7.03
2019-03-29T21:17:09.741Z,4.80
2019-03-29T21:19:38.795Z,6.47
2019-03-29T21:22:05.182Z,8.73
2019-03-29T21:24:31.701Z,6.87
2019-03-29T21:27:01.578Z,6.77
2019-03-29T21:29:29.366Z,9.87
2019-03-29T21:31:55.976Z,10.00
2019-03-29T21:34:22.376Z,9.53
2019-03-29T21:36:49.090Z,7.87
2019-03-29T21:39:19.088Z,9.43
2019-03-29T21:41:45.529Z,8.57
2019-03-29T21:44:12.260Z,9.33
2019-03-29T21:46:40.988Z,8.87
2019-03-29T21:49:07.228Z,8.50
2019-03-29T21:51:36.118Z,13.63
2019-03-29T21:54:02.559Z,10.03
2019-03-29T21:56:30.655Z,6.87
2019-03-29T21:58:57.265Z,7.30
2019-03-29T22:01:25.166Z,8.63
2019-03-29T22:03:53.625Z,8.47
2019-03-29T22:06:21.990Z,7.63
2019-03-29T22:08:48.634Z,7.40
2019-03-29T22:11:15.024Z,7.90
2019-03-29T22:13:41.297Z,6.83
2019-03-29T22:16:07.787Z,10.27
2019-03-29T22:18:38.041Z,13.73
2019-03-29T22:21:05.616Z,11.47
2019-03-29T22:23:33.862Z,10.07
2019-03-29T22:26:00.467Z,9.10
2019-03-29T22:28:26.987Z,12.17
2019-03-29T22:30:53.404Z,10.17
2019-03-29T22:33:20.039Z,11.70
2019-03-29T22:35:49.683Z,9.13
2019-03-29T22:38:16.068Z,9.57
2019-03-29T22:40:42.508Z,7.20
2019-03-29T22:43:09.321Z,7.70
2019-03-29T22:45:38.642Z,9.97
2019-03-29T22:48:05.217Z,8.47
2019-03-29T22:50:32.035Z,6.77
2019-03-29T22:53:00.606Z,7.63
2019-03-29T22:55:27.031Z,11.47
2019-03-29T22:57:53.557Z,9.70
2019-03-29T23:00:36.255Z,7.90
2019-03-29T23:03:08.020Z,11.83
2019-03-29T23:05:35.071Z,13.27
2019-03-29T23:08:01.890Z,13.67
2019-03-29T23:10:28.635Z,13.57
2019-03-29T23:12:55.311Z,8.97
2019-03-29T23:15:21.684Z,13.30
2019-03-29T23:17:48.072Z,13.33
2019-03-29T23:20:14.676Z,11.07
2019-03-29T23:22:41.236Z,8.70
2019-03-29T23:25:08.145Z,9.87
2019-03-29T23:27:35.903Z,13.63
2019-03-29T23:30:04.624Z,13.03
2019-03-29T23:32:31.293Z,12.50
2019-03-29T23:34:57.973Z,17.70
2019-03-29T23:37:24.340Z,13.43
2019-03-29T23:39:51.406Z,9.93
2019-03-29T23:42:17.901Z,10.50
2019-03-29T23:44:45.529Z,14.63
2019-03-29T23:47:12.280Z,10.00
2019-03-29T23:49:40.748Z,8.60
2019-03-29T23:52:07.314Z,9.47
2019-03-29T23:54:35.401Z,9.27
2019-03-29T23:57:01.949Z,9.63
2019-03-29T23:59:31.477Z,9.23
